Time;durP1;ratioP1;P1;durP2;ratioP2;P2;SDS_P1;SDS_P2;PMS_P1;PMS_P2;Temp;Humidity;BMP_temperature;BMP_pressure;BME280_temperature;BME280_humidity;BME280_pressure;Samples;Min_cycle;Max_cycle;Signal;HPM_P1;HPM_P2
2022/02/23 00:01:13;;;;;;;21.73;4.28;;;6.00;99.90;;;;;;5142570;27;20099;-57
2022/02/23 00:03:38;;;;;;;19.50;3.55;;;6.00;99.90;;;;;;5144105;27;20050;-57
2022/02/23 00:06:04;;;;;;;22.33;4.20;;;5.90;99.90;;;;;;5139347;27;20031;-57
2022/02/23 00:08:29;;;;;;;37.58;6.32;;;5.90;99.90;;;;;;5150116;27;20510;-57
2022/02/23 00:10:56;;;;;;;27.05;6.60;;;5.90;99.90;;;;;;5150044;27;20399;-56
2022/02/23 00:13:22;;;;;;;20.08;4.45;;;5.80;99.90;;;;;;5148589;27;20033;-57
2022/02/23 00:15:47;;;;;;;24.67;4.43;;;5.80;99.90;;;;;;5150062;27;20019;-57
2022/02/23 00:18:17;;;;;;;23.00;4.65;;;5.80;99.90;;;;;;5150138;27;20042;-57
2022/02/23 00:20:43;;;;;;;22.10;3.88;;;5.90;99.90;;;;;;5150063;27;20423;-57
2022/02/23 00:23:09;;;;;;;21.45;4.88;;;5.80;99.90;;;;;;5149816;27;20062;-57
2022/02/23 00:25:35;;;;;;;25.70;4.97;;;5.80;99.90;;;;;;5148699;27;20501;-57
2022/02/23 00:28:00;;;;;;;30.52;4.28;;;5.80;99.90;;;;;;5149824;27;20119;-58
2022/02/23 00:30:26;;;;;;;29.63;4.55;;;5.80;99.90;;;;;;5145009;27;20027;-58
2022/02/23 00:32:54;;;;;;;22.20;4.90;;;5.80;99.90;;;;;;5140928;27;20027;-58
2022/02/23 00:35:20;;;;;;;24.60;4.57;;;5.80;99.90;;;;;;5150334;27;20018;-58
2022/02/23 00:37:45;;;;;;;25.85;4.38;;;5.80;99.90;;;;;;5148586;27;20023;-58
2022/02/23 00:40:11;;;;;;;22.25;4.22;;;5.80;99.90;;;;;;5150196;27;20383;-58
2022/02/23 00:42:37;;;;;;;22.77;4.47;;;5.80;99.90;;;;;;5136470;27;20411;-58
2022/02/23 00:45:02;;;;;;;26.10;5.35;;;5.80;99.90;;;;;;5124167;27;20509;-57
2022/02/23 00:47:28;;;;;;;24.73;4.70;;;5.90;99.90;;;;;;5135250;27;20043;-57
2022/02/23 00:49:53;;;;;;;35.97;5.47;;;5.90;99.90;;;;;;5129080;28;20110;-57
2022/02/23 00:52:19;;;;;;;24.27;4.18;;;6.00;99.90;;;;;;5127299;28;20024;-57
2022/02/23 00:54:44;;;;;;;20.38;4.53;;;6.00;99.90;;;;;;5128054;28;20019;-57
2022/02/23 00:57:10;;;;;;;22.05;5.70;;;6.10;99.90;;;;;;5129056;28;20031;-57
2022/02/23 00:59:36;;;;;;;23.20;4.22;;;6.10;99.90;;;;;;5128333;27;20071;-58
2022/02/23 01:02:01;;;;;;;20.95;4.47;;;6.10;99.90;;;;;;5140537;27;20026;-58
2022/02/23 01:04:27;;;;;;;28.75;4.28;;;6.10;99.90;;;;;;5145240;27;20192;-58
2022/02/23 01:06:52;;;;;;;30.27;5.53;;;6.10;99.90;;;;;;5140842;27;20026;-57
2022/02/23 01:09:18;;;;;;;26.17;5.32;;;6.10;99.90;;;;;;5152407;27;20495;-58
2022/02/23 01:11:44;;;;;;;30.27;5.78;;;6.10;99.90;;;;;;5152140;27;20387;-57
2022/02/23 01:14:10;;;;;;;19.95;4.78;;;6.10;99.90;;;;;;5153990;27;20068;-58
2022/02/23 01:16:37;;;;;;;21.20;4.75;;;6.10;99.90;;;;;;5153734;27;20530;-58
2022/02/23 01:19:03;;;;;;;35.83;5.35;;;6.20;99.90;;;;;;5152065;27;20298;-58
2022/02/23 01:21:28;;;;;;;26.38;4.55;;;6.20;99.90;;;;;;5152335;27;20034;-57
2022/02/23 01:23:54;;;;;;;22.95;4.45;;;6.20;99.90;;;;;;5148418;27;20035;-58
2022/02/23 01:26:20;;;;;;;28.17;6.03;;;6.20;99.90;;;;;;5144770;27;20022;-58
2022/02/23 01:28:46;;;;;;;27.63;5.20;;;6.10;99.90;;;;;;5153134;27;20113;-57
2022/02/23 01:31:11;;;;;;;26.45;5.38;;;6.20;99.90;;;;;;5144207;27;20026;-58
2022/02/23 01:33:37;;;;;;;27.17;6.57;;;6.10;99.90;;;;;;5147992;27;20026;-57
2022/02/23 01:36:03;;;;;;;35.60;5.57;;;6.20;99.90;;;;;;5153219;27;20045;-58
2022/02/23 01:38:28;;;;;;;24.27;5.07;;;6.20;99.90;;;;;;5153152;27;20155;-58
2022/02/23 01:40:54;;;;;;;20.55;4.70;;;6.20;99.90;;;;;;5151770;27;20364;-58
2022/02/23 01:43:20;;;;;;;25.98;4.68;;;6.20;99.90;;;;;;5152740;27;20031;-58
2022/02/23 01:45:45;;;;;;;28.45;5.47;;;6.20;99.90;;;;;;5137381;27;20113;-58
2022/02/23 01:48:11;;;;;;;22.58;4.70;;;6.20;99.90;;;;;;5144518;27;20314;-58
2022/02/23 01:50:37;;;;;;;36.70;4.72;;;6.20;99.90;;;;;;5153261;27;20067;-58
2022/02/23 01:53:05;;;;;;;35.08;6.35;;;6.30;99.90;;;;;;5152397;27;20023;-58
2022/02/23 01:55:31;;;;;;;30.00;5.50;;;6.30;99.90;;;;;;5152968;27;20148;-58
2022/02/23 01:57:57;;;;;;;31.60;5.15;;;6.20;99.90;;;;;;5152248;27;20022;-58
2022/02/23 02:00:23;;;;;;;25.42;5.05;;;6.20;99.90;;;;;;5135693;27;20023;-58
2022/02/23 02:02:49;;;;;;;30.27;5.82;;;6.20;99.90;;;;;;5149166;27;20046;-58
2022/02/23 02:05:15;;;;;;;28.52;5.15;;;6.30;99.90;;;;;;5142630;27;20495;-58
2022/02/23 02:07:42;;;;;;;24.45;5.35;;;6.30;99.90;;;;;;5148289;27;20470;-58
2022/02/23 02:10:08;;;;;;;29.35;5.38;;;6.30;99.90;;;;;;5152451;27;20022;-58
2022/02/23 02:12:34;;;;;;;32.22;6.25;;;6.30;99.90;;;;;;5152132;27;20160;-58
2022/02/23 02:15:02;;;;;;;28.67;6.68;;;6.30;99.90;;;;;;5152152;27;20486;-58
2022/02/23 02:17:29;;;;;;;28.92;5.40;;;6.30;99.90;;;;;;5140145;27;20023;-58
2022/02/23 02:19:55;;;;;;;24.95;5.30;;;6.30;99.90;;;;;;5138556;27;20060;-58
2022/02/23 02:22:20;;;;;;;26.65;5.00;;;6.30;99.90;;;;;;5135829;27;20054;-58
2022/02/23 02:24:47;;;;;;;33.28;4.35;;;6.30;99.90;;;;;;5124798;27;20508;-58
2022/02/23 02:27:15;;;;;;;28.50;4.88;;;6.30;99.90;;;;;;5110812;28;20031;-58
2022/02/23 02:29:42;;;;;;;28.88;6.38;;;6.30;99.90;;;;;;5111033;28;20035;-58
2022/02/23 02:32:09;;;;;;;23.92;6.53;;;6.30;99.90;;;;;;5109957;28;20035;-58
2022/02/23 02:34:35;;;;;;;37.42;5.90;;;6.30;99.90;;;;;;5136705;27;20080;-59
2022/02/23 02:37:01;;;;;;;30.30;5.43;;;6.30;99.90;;;;;;5132710;27;20015;-58
2022/02/23 02:39:27;;;;;;;23.33;5.18;;;6.30;99.90;;;;;;5131610;27;20023;-58
2022/02/23 02:41:53;;;;;;;29.42;5.28;;;6.30;99.90;;;;;;5130935;27;20436;-59
2022/02/23 02:44:18;;;;;;;38.97;5.95;;;6.30;99.90;;;;;;5131312;27;20498;-58
2022/02/23 02:46:45;;;;;;;43.55;6.55;;;6.30;99.90;;;;;;5130012;27;20050;-58
2022/02/23 02:49:11;;;;;;;33.40;5.30;;;6.20;99.90;;;;;;5130499;27;20031;-58
2022/02/23 02:51:37;;;;;;;35.22;5.72;;;6.30;99.90;;;;;;5131280;27;20030;-58
2022/02/23 02:54:04;;;;;;;30.08;5.45;;;6.20;99.90;;;;;;5130660;27;20025;-58
2022/02/23 02:56:30;;;;;;;25.55;5.90;;;6.20;99.90;;;;;;5131037;27;20153;-58
2022/02/23 02:58:56;;;;;;;24.08;5.05;;;6.20;99.90;;;;;;5127730;27;20030;-58
2022/02/23 03:01:23;;;;;;;25.42;4.60;;;6.10;99.90;;;;;;5121699;27;20023;-57
2022/02/23 03:03:49;;;;;;;32.53;5.50;;;6.10;99.90;;;;;;5119859;27;20019;-58
2022/02/23 03:06:15;;;;;;;29.98;5.93;;;6.20;99.90;;;;;;5120880;27;20442;-58
2022/02/23 03:08:42;;;;;;;34.58;6.47;;;6.10;99.90;;;;;;5119923;27;20027;-56
2022/02/23 03:11:07;;;;;;;23.27;5.18;;;6.10;99.90;;;;;;5125937;27;20026;-58
2022/02/23 03:13:33;;;;;;;29.08;5.88;;;6.00;99.90;;;;;;5120117;27;20031;-57
2022/02/23 03:15:58;;;;;;;28.45;6.45;;;6.10;99.90;;;;;;5117478;27;20022;-56
2022/02/23 03:18:24;;;;;;;33.65;4.97;;;6.00;99.90;;;;;;5120544;27;20429;-57
2022/02/23 03:20:49;;;;;;;24.15;5.18;;;6.00;99.90;;;;;;5112792;27;20058;-57
2022/02/23 03:23:17;;;;;;;29.20;5.13;;;6.00;99.90;;;;;;5109566;28;20020;-57
2022/02/23 03:25:42;;;;;;;27.17;5.25;;;6.00;99.90;;;;;;5110186;28;20492;-57
2022/02/23 03:28:08;;;;;;;27.73;5.95;;;6.00;99.90;;;;;;5109697;28;20032;-57
2022/02/23 03:30:33;;;;;;;27.70;5.75;;;6.00;99.90;;;;;;5109007;28;20063;-57
2022/02/23 03:32:59;;;;;;;34.60;5.60;;;6.10;99.90;;;;;;5109082;28;20451;-57
2022/02/23 03:35:27;;;;;;;38.70;5.90;;;6.10;99.90;;;;;;5108401;28;20066;-58
2022/02/23 03:37:55;;;;;;;26.08;5.53;;;6.20;99.90;;;;;;5118863;27;20023;-58
2022/02/23 03:40:21;;;;;;;29.80;5.28;;;6.20;99.90;;;;;;5122075;27;20491;-57
2022/02/23 03:42:47;;;;;;;37.25;4.78;;;6.20;99.90;;;;;;5129879;27;20019;-58
2022/02/23 03:45:12;;;;;;;27.08;5.88;;;6.20;99.90;;;;;;5129547;27;20058;-58
2022/02/23 03:47:38;;;;;;;30.25;5.32;;;6.20;99.90;;;;;;5110405;27;20076;-57
2022/02/23 03:50:04;;;;;;;30.30;4.85;;;6.20;99.90;;;;;;5108263;28;20030;-58
2022/02/23 03:52:29;;;;;;;24.40;3.83;;;6.20;99.90;;;;;;5109029;28;20476;-58
2022/02/23 03:54:55;;;;;;;29.45;6.47;;;6.20;99.90;;;;;;5109320;28;20030;-58
2022/02/23 03:57:20;;;;;;;31.58;5.88;;;6.20;99.90;;;;;;5107856;28;20532;-58
2022/02/23 03:59:45;;;;;;;24.30;4.25;;;6.10;99.90;;;;;;5107437;28;20468;-58
2022/02/23 04:02:11;;;;;;;32.35;6.40;;;6.20;99.90;;;;;;5138127;27;20050;-58
2022/02/23 04:04:36;;;;;;;21.20;5.38;;;6.10;99.90;;;;;;5129983;27;20435;-58
2022/02/23 04:07:02;;;;;;;21.73;4.93;;;6.10;99.90;;;;;;5128629;27;20015;-58
2022/02/23 04:09:28;;;;;;;45.70;5.97;;;6.10;99.90;;;;;;5129524;27;20031;-58
2022/02/23 04:11:53;;;;;;;23.58;5.00;;;6.10;99.90;;;;;;5133763;27;20027;-58
2022/02/23 04:14:19;;;;;;;25.40;5.00;;;6.00;99.90;;;;;;5142708;27;20069;-58
2022/02/23 04:16:44;;;;;;;32.13;5.55;;;6.00;99.90;;;;;;5147173;27;20023;-58
2022/02/23 04:19:10;;;;;;;33.70;5.28;;;6.00;99.90;;;;;;5141123;27;20025;-58
2022/02/23 04:21:35;;;;;;;27.20;6.05;;;6.00;99.90;;;;;;5150426;27;20448;-58
2022/02/23 04:24:01;;;;;;;30.92;4.88;;;6.00;99.90;;;;;;5148622;27;20023;-57
2022/02/23 04:26:28;;;;;;;34.00;5.82;;;6.00;99.90;;;;;;5148632;27;20026;-58
2022/02/23 04:28:53;;;;;;;27.33;4.60;;;6.00;99.90;;;;;;5136069;27;20019;-58
2022/02/23 04:31:20;;;;;;;23.88;5.88;;;6.10;99.90;;;;;;5142470;27;20033;-58
2022/02/23 04:33:45;;;;;;;22.58;4.47;;;6.00;99.90;;;;;;5150042;27;20022;-58
2022/02/23 04:36:11;;;;;;;26.27;5.30;;;6.00;99.90;;;;;;5150204;27;20127;-57
2022/02/23 04:38:37;;;;;;;24.90;4.38;;;6.10;99.90;;;;;;5146079;27;20376;-56
2022/02/23 04:41:04;;;;;;;29.63;4.32;;;6.10;99.90;;;;;;5139260;27;20023;-56
2022/02/23 04:43:33;;;;;;;31.23;4.97;;;6.00;99.90;;;;;;5152861;27;20018;-56
2022/02/23 04:46:08;;;;;;;29.58;6.38;;;6.00;99.90;;;;;;5154622;27;20018;-57
2022/02/23 04:48:34;;;;;;;27.95;4.55;;;6.00;99.90;;;;;;5154512;27;20014;-56
2022/02/23 04:51:00;;;;;;;18.23;3.65;;;6.00;99.90;;;;;;5154312;27;20034;-56
2022/02/23 04:53:25;;;;;;;35.20;5.97;;;6.00;99.90;;;;;;5153973;27;20421;-55
2022/02/23 04:55:51;;;;;;;34.55;4.85;;;6.00;99.90;;;;;;5154458;27;20023;-55
2022/02/23 04:58:17;;;;;;;19.33;4.20;;;6.00;99.90;;;;;;5152816;27;20023;-55
2022/02/23 05:00:43;;;;;;;27.25;5.07;;;6.00;99.90;;;;;;5148628;27;20517;-55
2022/02/23 05:03:08;;;;;;;28.80;5.22;;;6.00;99.90;;;;;;5144749;27;20019;-55
2022/02/23 05:05:34;;;;;;;21.02;4.13;;;6.00;99.90;;;;;;5136782;27;20038;-55
2022/02/23 05:07:59;;;;;;;19.83;4.30;;;6.00;99.90;;;;;;5128218;27;20272;-56
2022/02/23 05:10:25;;;;;;;27.83;5.53;;;6.00;99.90;;;;;;5126112;27;20031;-55
2022/02/23 05:12:51;;;;;;;26.92;4.15;;;6.00;99.90;;;;;;5130065;27;20015;-55
2022/02/23 05:15:16;;;;;;;16.85;5.35;;;6.00;99.90;;;;;;5148078;27;20045;-55
2022/02/23 05:17:42;;;;;;;26.73;4.82;;;5.90;99.90;;;;;;5124246;27;20019;-55
2022/02/23 05:20:08;;;;;;;19.77;4.95;;;5.90;99.90;;;;;;5148328;27;20049;-56
2022/02/23 05:22:34;;;;;;;28.38;5.68;;;5.90;99.90;;;;;;5148207;27;20094;-56
2022/02/23 05:25:00;;;;;;;27.30;4.28;;;6.00;99.90;;;;;;5136141;27;20023;-57
2022/02/23 05:27:25;;;;;;;19.85;4.53;;;5.90;99.90;;;;;;5123284;27;20063;-57
2022/02/23 05:29:51;;;;;;;23.15;5.43;;;5.90;99.90;;;;;;5125311;27;20117;-57
2022/02/23 05:32:16;;;;;;;34.33;5.57;;;5.90;99.90;;;;;;5139235;27;20022;-57
2022/02/23 05:34:42;;;;;;;21.25;4.43;;;6.00;99.90;;;;;;5136806;27;20068;-57
2022/02/23 05:37:08;;;;;;;24.55;5.03;;;6.00;99.90;;;;;;5123770;27;20027;-57
2022/02/23 05:39:33;;;;;;;25.65;5.30;;;6.00;99.90;;;;;;5115835;27;20031;-56
2022/02/23 05:41:59;;;;;;;38.65;4.38;;;6.00;99.90;;;;;;5116199;27;20024;-57
2022/02/23 05:44:24;;;;;;;28.30;5.40;;;6.00;99.90;;;;;;5122512;27;20026;-58
2022/02/23 05:46:50;;;;;;;29.85;4.95;;;6.00;99.90;;;;;;5127600;27;20043;-57
2022/02/23 05:49:16;;;;;;;27.05;5.57;;;6.00;99.90;;;;;;5127439;27;20055;-59
2022/02/23 05:51:43;;;;;;;28.13;4.68;;;6.00;99.90;;;;;;5125421;27;20539;-59
2022/02/23 05:54:08;;;;;;;25.38;5.85;;;6.00;99.90;;;;;;5124453;27;20020;-59
2022/02/23 05:56:35;;;;;;;26.17;5.07;;;5.90;99.90;;;;;;5142956;27;20043;-59
2022/02/23 05:59:00;;;;;;;25.17;4.70;;;5.90;99.90;;;;;;5145202;27;20027;-58
2022/02/23 06:01:26;;;;;;;28.70;4.35;;;5.90;99.90;;;;;;5133786;27;20019;-58
2022/02/23 06:03:52;;;;;;;26.67;5.43;;;6.00;99.90;;;;;;5136724;27;20105;-58
2022/02/23 06:06:17;;;;;;;25.67;4.93;;;5.90;99.90;;;;;;5130162;27;20023;-58
2022/02/23 06:08:43;;;;;;;22.55;4.78;;;5.90;99.90;;;;;;5124920;27;20159;-59
2022/02/23 06:11:09;;;;;;;30.17;4.45;;;5.90;99.90;;;;;;5127130;27;20099;-58
2022/02/23 06:13:35;;;;;;;24.98;4.10;;;5.90;99.90;;;;;;5136994;27;20015;-58
2022/02/23 06:16:01;;;;;;;28.67;4.72;;;5.90;99.90;;;;;;5143931;27;20084;-58
2022/02/23 06:18:28;;;;;;;34.10;6.85;;;5.90;99.90;;;;;;5130651;27;20027;-58
2022/02/23 06:20:56;;;;;;;21.45;4.57;;;5.90;99.90;;;;;;5118743;27;20062;-58
2022/02/23 06:23:23;;;;;;;19.55;3.97;;;5.90;99.90;;;;;;5110822;28;20023;-58
2022/02/23 06:25:49;;;;;;;42.03;5.47;;;5.90;99.90;;;;;;5109828;27;20027;-58
2022/02/23 06:28:14;;;;;;;27.33;4.72;;;5.90;99.90;;;;;;5134464;27;20045;-56
2022/02/23 06:30:40;;;;;;;21.90;4.72;;;5.90;99.90;;;;;;5130620;27;20028;-58
2022/02/23 06:33:06;;;;;;;23.15;4.95;;;5.80;99.90;;;;;;5110343;28;20035;-58
2022/02/23 06:35:33;;;;;;;24.38;5.30;;;5.90;99.90;;;;;;5110770;28;20472;-58
2022/02/23 06:37:58;;;;;;;26.75;5.07;;;5.80;99.90;;;;;;5111130;27;20076;-58
2022/02/23 06:40:24;;;;;;;23.95;5.38;;;5.80;99.90;;;;;;5119419;27;20028;-56
2022/02/23 06:42:50;;;;;;;28.65;5.30;;;5.80;99.90;;;;;;5118128;27;20030;-57
2022/02/23 06:45:15;;;;;;;24.13;3.90;;;5.90;99.90;;;;;;5121664;27;20046;-57
2022/02/23 06:47:41;;;;;;;26.58;5.03;;;5.90;99.90;;;;;;5121732;27;20026;-56
2022/02/23 06:50:07;;;;;;;27.92;5.82;;;5.90;99.90;;;;;;5122764;27;20421;-57
2022/02/23 06:52:36;;;;;;;36.80;5.57;;;5.90;99.90;;;;;;5134689;27;20507;-57
2022/02/23 06:55:02;;;;;;;20.77;4.65;;;5.90;99.90;;;;;;5119979;27;20023;-57
2022/02/23 06:57:38;;;;;;;27.75;4.72;;;5.90;99.90;;;;;;5125353;27;20019;-57
2022/02/23 07:00:06;;;;;;;19.52;4.05;;;5.90;99.90;;;;;;5126655;27;20023;-57
2022/02/23 07:02:32;;;;;;;32.53;4.95;;;5.90;99.90;;;;;;5121898;27;20165;-57
2022/02/23 07:04:57;;;;;;;20.40;5.25;;;5.90;99.90;;;;;;5132392;27;20506;-57
2022/02/23 07:07:23;;;;;;;33.95;6.22;;;6.00;99.90;;;;;;5135756;27;20065;-57
2022/02/23 07:09:48;;;;;;;31.20;6.50;;;6.10;99.90;;;;;;5131862;27;20507;-58
2022/02/23 07:12:14;;;;;;;26.45;4.53;;;6.00;99.90;;;;;;5146691;27;20058;-57
2022/02/23 07:14:39;;;;;;;26.23;5.32;;;6.00;99.90;;;;;;5143531;27;20037;-57
2022/02/23 07:17:05;;;;;;;30.35;4.78;;;6.00;99.90;;;;;;5124943;27;20019;-57
2022/02/23 07:19:31;;;;;;;22.95;4.75;;;6.10;99.90;;;;;;5112190;27;20020;-57
2022/02/23 07:21:56;;;;;;;25.23;5.38;;;6.10;99.90;;;;;;5128052;27;20037;-58
2022/02/23 07:24:22;;;;;;;35.42;5.95;;;6.10;99.90;;;;;;5131018;27;20113;-58
2022/02/23 07:26:47;;;;;;;24.08;4.22;;;6.10;99.90;;;;;;5130251;27;20083;-58
2022/02/23 07:29:13;;;;;;;30.15;5.00;;;6.10;99.90;;;;;;5120395;27;20035;-58
2022/02/23 07:31:40;;;;;;;24.27;4.95;;;6.20;99.90;;;;;;5127298;27;20031;-58
2022/02/23 07:34:07;;;;;;;30.10;4.90;;;6.30;99.90;;;;;;5132978;27;20076;-57
2022/02/23 07:36:32;;;;;;;23.85;5.07;;;6.30;99.90;;;;;;5116422;27;20429;-58
2022/02/23 07:38:58;;;;;;;46.45;6.18;;;6.30;99.90;;;;;;5132063;27;20045;-57
2022/02/23 07:41:25;;;;;;;25.80;5.30;;;6.30;99.90;;;;;;5130224;27;20384;-58
2022/02/23 07:43:51;;;;;;;31.30;5.43;;;6.30;99.90;;;;;;5123008;27;20023;-58
2022/02/23 07:46:17;;;;;;;22.35;4.20;;;6.40;99.90;;;;;;5109345;28;20031;-58
2022/02/23 07:48:45;;;;;;;26.08;6.00;;;6.40;99.90;;;;;;5112925;27;20042;-58
2022/02/23 07:51:10;;;;;;;24.33;5.57;;;6.50;99.90;;;;;;5128031;27;20026;-58
2022/02/23 07:53:35;;;;;;;32.72;5.38;;;6.60;99.90;;;;;;5134481;27;20023;-58
2022/02/23 07:56:01;;;;;;;31.73;6.20;;;6.60;99.90;;;;;;5130566;27;20051;-57
2022/02/23 07:58:27;;;;;;;34.60;5.32;;;6.60;99.90;;;;;;5142290;27;20041;-57
2022/02/23 08:00:55;;;;;;;32.65;4.57;;;6.60;99.90;;;;;;5118269;27;20020;-57
2022/02/23 08:03:21;;;;;;;27.23;5.20;;;6.70;99.90;;;;;;5140492;27;20046;-58
2022/02/23 08:05:47;;;;;;;20.00;5.18;;;6.80;99.90;;;;;;5127647;27;20027;-57
2022/02/23 08:08:14;;;;;;;31.15;6.68;;;6.90;99.90;;;;;;5112344;27;20028;-58
2022/02/23 08:10:40;;;;;;;22.02;4.53;;;6.90;99.90;;;;;;5110189;28;20024;-57
2022/02/23 08:13:07;;;;;;;29.58;6.53;;;7.00;99.90;;;;;;5110396;27;20085;-57
2022/02/23 08:21:01;;;;;;;31.35;4.93;;;7.20;99.90;;;;;;5136260;27;20073;-58
2022/02/23 08:23:27;;;;;;;23.27;5.32;;;7.30;99.90;;;;;;5116472;27;20044;-57
2022/02/23 08:25:53;;;;;;;26.30;5.75;;;7.30;99.90;;;;;;5117557;28;20030;-57
2022/02/23 08:28:19;;;;;;;40.08;5.10;;;7.30;99.90;;;;;;5128395;27;20050;-57
2022/02/23 08:30:46;;;;;;;28.60;6.03;;;7.30;99.90;;;;;;5127196;27;20123;-57
2022/02/23 08:33:12;;;;;;;24.77;6.80;;;7.40;99.90;;;;;;5115214;28;20472;-58
2022/02/23 08:35:38;;;;;;;24.13;5.97;;;7.30;99.90;;;;;;5112335;27;20451;-57
2022/02/23 08:38:04;;;;;;;25.23;5.18;;;7.30;99.90;;;;;;5107408;28;20051;-57
2022/02/23 08:40:29;;;;;;;28.95;5.10;;;7.40;99.90;;;;;;5113906;27;20027;-57
2022/02/23 08:42:55;;;;;;;25.60;4.53;;;7.40;99.90;;;;;;5129092;27;20019;-58
2022/02/23 08:45:21;;;;;;;20.90;5.38;;;7.40;99.90;;;;;;5126956;27;20106;-58
2022/02/23 08:47:46;;;;;;;21.38;5.43;;;7.50;99.90;;;;;;5107349;28;20032;-57
2022/02/23 08:50:12;;;;;;;29.45;5.97;;;7.60;99.90;;;;;;5115998;27;20397;-57
2022/02/23 08:52:38;;;;;;;26.48;5.10;;;7.60;99.90;;;;;;5114640;27;20411;-57
2022/02/23 08:55:04;;;;;;;27.00;5.68;;;7.60;99.90;;;;;;5128805;27;20207;-57
2022/02/23 08:57:30;;;;;;;22.33;5.38;;;7.60;99.90;;;;;;5124638;27;20384;-57
2022/02/23 08:59:56;;;;;;;25.60;6.40;;;7.60;99.90;;;;;;5134259;27;20316;-58
2022/02/23 09:02:23;;;;;;;33.83;6.20;;;7.60;99.90;;;;;;5136137;27;20027;-57
2022/02/23 09:04:49;;;;;;;28.50;6.65;;;7.70;99.90;;;;;;5128802;27;20027;-57
2022/02/23 09:07:14;;;;;;;36.92;6.30;;;7.70;99.90;;;;;;5131377;27;20030;-57
2022/02/23 09:09:40;;;;;;;34.60;6.13;;;7.90;99.90;;;;;;5112945;28;20079;-56
2022/02/23 09:12:06;;;;;;;31.52;5.75;;;8.00;99.90;;;;;;5127520;28;20027;-57
2022/02/23 09:14:31;;;;;;;33.22;6.55;;;8.10;99.90;;;;;;5119010;27;20464;-57
2022/02/23 09:16:57;;;;;;;20.08;4.85;;;8.30;99.90;;;;;;5127035;27;20023;-57
2022/02/23 09:19:22;;;;;;;32.88;7.57;;;8.50;99.90;;;;;;5115337;28;20506;-57
2022/02/23 09:21:48;;;;;;;24.77;5.63;;;8.40;99.90;;;;;;5108291;28;20036;-57
2022/02/23 09:24:14;;;;;;;32.90;5.97;;;8.50;99.90;;;;;;5108290;27;20046;-57
2022/02/23 09:26:39;;;;;;;24.58;5.55;;;8.40;99.90;;;;;;5126883;27;20020;-57
2022/02/23 09:29:05;;;;;;;29.13;6.25;;;8.50;99.90;;;;;;5130555;27;20027;-57
2022/02/23 09:31:31;;;;;;;25.92;4.60;;;8.70;99.90;;;;;;5112223;27;20114;-57
2022/02/23 09:33:57;;;;;;;25.98;6.13;;;9.00;99.90;;;;;;5139338;27;20144;-57
2022/02/23 09:36:23;;;;;;;25.55;5.65;;;9.20;99.90;;;;;;5130394;27;20015;-57
2022/02/23 09:38:51;;;;;;;18.80;6.05;;;9.20;99.90;;;;;;5137398;27;20026;-57
2022/02/23 09:41:18;;;;;;;29.98;5.68;;;9.50;99.90;;;;;;5136282;27;20023;-57
2022/02/23 09:43:50;;;;;;;18.00;4.60;;;10.10;99.90;;;;;;5116477;27;20098;-57
2022/02/23 09:46:20;;;;;;;22.95;5.00;;;10.10;99.90;;;;;;5132431;27;20023;-57
2022/02/23 09:48:47;;;;;;;26.67;5.13;;;10.10;99.90;;;;;;5132427;27;20067;-57
2022/02/23 09:51:13;;;;;;;24.85;5.10;;;10.80;99.90;;;;;;5128783;27;20510;-57
2022/02/23 09:53:45;;;;;;;30.85;5.57;;;11.90;99.90;;;;;;5120140;27;20036;-58
2022/02/23 09:56:12;;;;;;;20.40;4.80;;;12.30;98.30;;;;;;5121703;27;20421;-58
2022/02/23 09:58:37;;;;;;;20.20;4.32;;;13.00;96.30;;;;;;5123436;27;20027;-58
2022/02/23 10:01:04;;;;;;;19.52;5.18;;;13.20;94.80;;;;;;5121282;27;20114;-58
2022/02/23 10:03:34;;;;;;;20.15;5.05;;;13.10;95.00;;;;;;5118823;27;20106;-58
2022/02/23 10:05:59;;;;;;;16.45;4.28;;;13.50;93.40;;;;;;5126770;27;20527;-58
2022/02/23 10:08:33;;;;;;;14.40;4.15;;;14.60;92.90;;;;;;5120853;27;20106;-58
2022/02/23 10:11:00;;;;;;;15.40;4.25;;;15.90;88.90;;;;;;5122879;27;20550;-57
2022/02/23 10:13:25;;;;;;;19.40;4.38;;;17.60;80.20;;;;;;5118369;27;20020;-57
2022/02/23 10:15:51;;;;;;;17.17;5.00;;;18.20;70.60;;;;;;5119171;27;20434;-57
2022/02/23 10:18:20;;;;;;;17.15;4.93;;;19.10;65.30;;;;;;5124496;27;20019;-56
2022/02/23 10:20:47;;;;;;;15.35;4.70;;;19.20;61.10;;;;;;5115460;27;20023;-56
2022/02/23 10:23:18;;;;;;;19.23;5.47;;;19.50;60.60;;;;;;5116821;27;20032;-56
2022/02/23 10:25:51;;;;;;;17.63;5.00;;;19.90;59.30;;;;;;5122711;27;20152;-58
2022/02/23 10:28:21;;;;;;;16.52;4.75;;;20.00;57.70;;;;;;5125201;27;20019;-57
2022/02/23 10:30:52;;;;;;;17.10;4.47;;;20.40;55.50;;;;;;5115511;27;20030;-56
2022/02/23 10:33:22;;;;;;;13.98;4.50;;;19.80;55.80;;;;;;5123642;27;20049;-56
2022/02/23 10:35:51;;;;;;;16.27;5.13;;;20.30;55.20;;;;;;5121212;27;20031;-57
2022/02/23 10:38:42;;;;;;;16.47;4.43;;;20.70;56.20;;;;;;5123100;27;20746;-57
2022/02/23 10:41:09;;;;;;;18.75;4.93;;;19.70;55.50;;;;;;5115998;27;20027;-57
2022/02/23 10:43:36;;;;;;;14.18;4.05;;;20.50;55.60;;;;;;5120779;27;20094;-57
2022/02/23 10:46:03;;;;;;;15.73;4.65;;;20.80;55.40;;;;;;5120436;27;20098;-57
2022/02/23 10:48:41;;;;;;;15.48;4.40;;;20.30;55.70;;;;;;5122976;27;20019;-57
2022/02/23 10:51:10;;;;;;;11.55;4.28;;;19.90;55.50;;;;;;5118136;27;20031;-57
2022/02/23 10:53:37;;;;;;;15.95;4.15;;;19.10;56.20;;;;;;5118048;27;20023;-55
2022/02/23 10:56:24;;;;;;;14.20;4.30;;;18.40;58.60;;;;;;5120449;27;20115;-57
2022/02/23 10:59:03;;;;;;;17.77;4.88;;;17.90;59.60;;;;;;5116736;27;20640;-56
2022/02/23 11:01:29;;;;;;;16.88;4.72;;;17.60;61.20;;;;;;5119907;27;20034;-57
2022/02/23 11:03:55;;;;;;;15.75;4.07;;;17.30;63.00;;;;;;5114737;27;20077;-54
2022/02/23 11:06:23;;;;;;;19.13;4.50;;;17.00;65.80;;;;;;5119269;27;20037;-55
2022/02/23 11:08:50;;;;;;;15.52;4.13;;;16.90;62.90;;;;;;5116785;27;20479;-56
2022/02/23 11:11:17;;;;;;;13.60;4.20;;;16.40;66.70;;;;;;5124870;27;20031;-56
2022/02/23 11:13:43;;;;;;;18.85;4.82;;;16.30;67.00;;;;;;5120850;27;20417;-56
2022/02/23 11:16:09;;;;;;;16.88;4.53;;;16.10;65.90;;;;;;5141812;27;20107;-56
2022/02/23 11:18:36;;;;;;;21.15;5.32;;;15.10;68.90;;;;;;5139485;27;20066;-55
2022/02/23 11:21:03;;;;;;;17.98;4.78;;;14.80;70.80;;;;;;5137919;27;20023;-56
2022/02/23 11:23:28;;;;;;;19.75;4.97;;;14.60;72.70;;;;;;5133697;27;20039;-55
2022/02/23 11:25:55;;;;;;;19.92;4.70;;;15.30;70.60;;;;;;5127283;27;20098;-56
2022/02/23 11:28:23;;;;;;;20.30;4.95;;;15.40;71.00;;;;;;5128238;27;20038;-56
2022/02/23 11:31:01;;;;;;;17.23;4.63;;;14.80;68.90;;;;;;5110408;27;20579;-56
2022/02/23 11:34:01;;;;;;;12.55;4.97;;;15.20;71.10;;;;;;5126012;27;20035;-56
2022/02/23 11:36:36;;;;;;;18.45;5.10;;;16.20;69.30;;;;;;5108022;28;20023;-56
2022/02/23 11:39:25;;;;;;;13.30;4.15;;;17.30;64.90;;;;;;5134448;27;20571;-56
2022/02/23 11:41:56;;;;;;;20.45;4.40;;;17.90;60.10;;;;;;5128585;27;20027;-56
2022/02/23 11:44:26;;;;;;;19.77;4.65;;;17.50;61.00;;;;;;5109271;28;20421;-56
2022/02/23 11:49:54;;;;;;;17.20;4.32;;;17.10;64.30;;;;;;5132131;27;20115;-57
2022/02/23 11:52:24;;;;;;;12.73;3.67;;;17.30;62.20;;;;;;5109901;27;20019;-57
2022/02/23 11:54:58;;;;;;;15.10;4.13;;;16.50;65.00;;;;;;5115842;27;20020;-56
2022/02/23 11:58:01;;;;;;;13.70;4.18;;;16.80;63.80;;;;;;5118858;27;20024;-57
2022/02/23 12:00:44;;;;;;;14.65;4.50;;;15.70;66.80;;;;;;5116744;27;20024;-56
2022/02/23 12:03:20;;;;;;;17.08;3.58;;;16.00;66.30;;;;;;5117520;27;20031;-58
2022/02/23 12:05:58;;;;;;;12.90;3.28;;;16.90;65.90;;;;;;5117688;27;20035;-56
2022/02/23 12:08:32;;;;;;;9.77;3.22;;;17.70;61.40;;;;;;5121596;27;20431;-57
2022/02/23 12:11:13;;;;;;;14.88;3.50;;;18.40;59.90;;;;;;5122175;27;20066;-56
2022/02/23 12:14:02;;;;;;;;;;;18.50;59.40;;;;;;5127800;27;20034;-56
2022/02/23 12:16:33;;;;;;;14.30;3.65;;;17.40;61.00;;;;;;5116507;27;20001;-56
2022/02/23 12:19:03;;;;;;;12.73;2.75;;;16.90;62.20;;;;;;5125457;27;20027;-56
2022/02/23 12:21:41;;;;;;;12.30;3.42;;;16.80;61.50;;;;;;5114635;27;20277;-55
2022/02/23 12:24:13;;;;;;;9.13;2.50;;;16.30;64.70;;;;;;5113322;28;20096;-55
2022/02/23 12:26:39;;;;;;;13.02;3.05;;;16.20;62.00;;;;;;5115156;27;20476;-56
2022/02/23 12:29:09;;;;;;;10.80;3.33;;;16.30;63.00;;;;;;5126046;27;20031;-56
2022/02/23 12:31:39;;;;;;;8.80;3.15;;;16.90;61.70;;;;;;5109857;28;20012;-56
2022/02/23 12:34:07;;;;;;;15.00;3.50;;;17.60;60.20;;;;;;5137799;27;20027;-57
2022/02/23 12:36:36;;;;;;;13.43;3.45;;;17.60;60.10;;;;;;5113455;27;20741;-57
2022/02/23 12:39:05;;;;;;;10.60;2.80;;;17.90;58.60;;;;;;5133857;27;20023;-57
2022/02/23 12:41:36;;;;;;;13.75;3.55;;;17.20;60.50;;;;;;5116277;28;20031;-57
2022/02/23 12:44:01;;;;;;;14.23;3.08;;;17.20;59.90;;;;;;5116012;28;20031;-57
2022/02/23 12:46:31;;;;;;;10.05;2.55;;;17.20;59.40;;;;;;5115339;28;20499;-57
2022/02/23 12:48:58;;;;;;;7.67;2.20;;;17.20;61.60;;;;;;5114884;28;20060;-54
2022/02/23 12:51:25;;;;;;;7.53;2.50;;;16.80;58.70;;;;;;5115958;27;20111;-57
2022/02/23 12:53:53;;;;;;;7.32;2.58;;;16.30;60.00;;;;;;5116205;28;20085;-57